sensor_id;sensor_type;location;lat;lon;timestamp;P1;durP1;ratioP1;P2;durP2;ratioP2
3141;SDS011;1581;51.568;6.998;2023-04-10T00:00:52;21.43;;;11.87;;
3141;SDS011;1581;51.568;6.998;2023-04-10T00:03:21;17.80;;;11.73;;
3141;SDS011;1581;51.568;6.998;2023-04-10T00:05:49;17.50;;;11.97;;
3141;SDS011;1581;51.568;6.998;2023-04-10T00:08:18;16.20;;;11.73;;
3141;SDS011;1581;51.568;6.998;2023-04-10T00:10:46;20.80;;;11.83;;
3141;SDS011;1581;51.568;6.998;2023-04-10T00:13:14;19.50;;;12.47;;
3141;SDS011;1581;51.568;6.998;2023-04-10T00:15:42;18.57;;;12.23;;
3141;SDS011;1581;51.568;6.998;2023-04-10T00:18:11;18.67;;;11.60;;
3141;SDS011;1581;51.568;6.998;2023-04-10T00:20:38;18.30;;;12.00;;
3141;SDS011;1581;51.568;6.998;2023-04-10T00:23:07;23.93;;;12.90;;
3141;SDS011;1581;51.568;6.998;2023-04-10T00:25:34;16.57;;;10.73;;
3141;SDS011;1581;51.568;6.998;2023-04-10T00:28:02;16.77;;;11.40;;
3141;SDS011;1581;51.568;6.998;2023-04-10T00:30:29;18.80;;;13.00;;
3141;SDS011;1581;51.568;6.998;2023-04-10T00:32:57;15.70;;;10.53;;
3141;SDS011;1581;51.568;6.998;2023-04-10T00:35:26;21.93;;;12.27;;
3141;SDS011;1581;51.568;6.998;2023-04-10T00:37:53;22.67;;;11.60;;
3141;SDS011;1581;51.568;6.998;2023-04-10T00:40:22;24.70;;;13.50;;
3141;SDS011;1581;51.568;6.998;2023-04-10T00:42:49;17.70;;;11.93;;
3141;SDS011;1581;51.568;6.998;2023-04-10T00:45:17;20.73;;;12.97;;
3141;SDS011;1581;51.568;6.998;2023-04-10T00:47:45;22.27;;;12.50;;
3141;SDS011;1581;51.568;6.998;2023-04-10T00:50:12;20.90;;;13.10;;
3141;SDS011;1581;51.568;6.998;2023-04-10T00:52:41;19.40;;;13.30;;
3141;SDS011;1581;51.568;6.998;2023-04-10T00:55:09;18.17;;;12.10;;
3141;SDS011;1581;51.568;6.998;2023-04-10T00:57:37;19.60;;;11.47;;
3141;SDS011;1581;51.568;6.998;2023-04-10T01:00:06;21.13;;;12.17;;
3141;SDS011;1581;51.568;6.998;2023-04-10T01:02:35;18.30;;;11.17;;
3141;SDS011;1581;51.568;6.998;2023-04-10T01:05:03;21.47;;;13.50;;
3141;SDS011;1581;51.568;6.998;2023-04-10T01:07:34;18.60;;;11.60;;
3141;SDS011;1581;51.568;6.998;2023-04-10T01:10:22;20.83;;;12.87;;
3141;SDS011;1581;51.568;6.998;2023-04-10T01:13:05;18.50;;;11.97;;
3141;SDS011;1581;51.568;6.998;2023-04-10T01:15:43;21.33;;;12.00;;
3141;SDS011;1581;51.568;6.998;2023-04-10T01:18:21;19.83;;;12.27;;
3141;SDS011;1581;51.568;6.998;2023-04-10T01:20:58;21.60;;;12.30;;
3141;SDS011;1581;51.568;6.998;2023-04-10T01:26:38;15.20;;;11.03;;
3141;SDS011;1581;51.568;6.998;2023-04-10T01:29:19;18.80;;;11.73;;
3141;SDS011;1581;51.568;6.998;2023-04-10T01:31:49;18.30;;;12.67;;
3141;SDS011;1581;51.568;6.998;2023-04-10T01:34:25;17.63;;;10.03;;
3141;SDS011;1581;51.568;6.998;2023-04-10T01:37:01;19.23;;;12.10;;
3141;SDS011;1581;51.568;6.998;2023-04-10T01:39:34;18.57;;;11.63;;
3141;SDS011;1581;51.568;6.998;2023-04-10T01:42:07;16.40;;;11.07;;
3141;SDS011;1581;51.568;6.998;2023-04-10T01:44:41;27.50;;;10.70;;
3141;SDS011;1581;51.568;6.998;2023-04-10T01:47:12;16.93;;;11.50;;
3141;SDS011;1581;51.568;6.998;2023-04-10T01:49:42;16.60;;;10.87;;
3141;SDS011;1581;51.568;6.998;2023-04-10T01:52:12;14.37;;;10.10;;
3141;SDS011;1581;51.568;6.998;2023-04-10T01:54:41;15.33;;;10.60;;
3141;SDS011;1581;51.568;6.998;2023-04-10T01:57:09;19.60;;;11.80;;
3141;SDS011;1581;51.568;6.998;2023-04-10T01:59:40;17.07;;;10.60;;
3141;SDS011;1581;51.568;6.998;2023-04-10T02:02:08;14.67;;;10.53;;
3141;SDS011;1581;51.568;6.998;2023-04-10T02:04:36;15.30;;;10.60;;
3141;SDS011;1581;51.568;6.998;2023-04-10T02:07:05;14.20;;;10.90;;
3141;SDS011;1581;51.568;6.998;2023-04-10T02:09:39;18.33;;;10.80;;
3141;SDS011;1581;51.568;6.998;2023-04-10T02:12:27;16.00;;;11.33;;
3141;SDS011;1581;51.568;6.998;2023-04-10T02:14:59;17.93;;;10.70;;
3141;SDS011;1581;51.568;6.998;2023-04-10T02:17:30;20.97;;;11.83;;
3141;SDS011;1581;51.568;6.998;2023-04-10T02:20:03;16.57;;;11.00;;
3141;SDS011;1581;51.568;6.998;2023-04-10T02:22:36;15.70;;;11.30;;
3141;SDS011;1581;51.568;6.998;2023-04-10T02:25:09;15.87;;;11.00;;
3141;SDS011;1581;51.568;6.998;2023-04-10T02:27:37;20.17;;;11.90;;
3141;SDS011;1581;51.568;6.998;2023-04-10T02:30:07;19.47;;;11.50;;
3141;SDS011;1581;51.568;6.998;2023-04-10T02:32:35;15.77;;;10.87;;
3141;SDS011;1581;51.568;6.998;2023-04-10T02:35:02;16.43;;;10.90;;
3141;SDS011;1581;51.568;6.998;2023-04-10T02:37:30;18.70;;;10.97;;
3141;SDS011;1581;51.568;6.998;2023-04-10T02:39:58;17.67;;;11.07;;
3141;SDS011;1581;51.568;6.998;2023-04-10T02:42:26;18.23;;;11.07;;
3141;SDS011;1581;51.568;6.998;2023-04-10T02:44:53;16.23;;;11.30;;
3141;SDS011;1581;51.568;6.998;2023-04-10T02:47:23;19.80;;;11.23;;
3141;SDS011;1581;51.568;6.998;2023-04-10T02:49:50;21.23;;;10.97;;
3141;SDS011;1581;51.568;6.998;2023-04-10T02:52:18;18.63;;;10.93;;
3141;SDS011;1581;51.568;6.998;2023-04-10T02:54:45;18.67;;;11.57;;
3141;SDS011;1581;51.568;6.998;2023-04-10T02:57:13;15.57;;;10.33;;
3141;SDS011;1581;51.568;6.998;2023-04-10T02:59:41;18.67;;;10.87;;
3141;SDS011;1581;51.568;6.998;2023-04-10T03:02:09;17.10;;;11.73;;
3141;SDS011;1581;51.568;6.998;2023-04-10T03:04:38;19.43;;;11.80;;
3141;SDS011;1581;51.568;6.998;2023-04-10T03:07:05;21.93;;;12.27;;
3141;SDS011;1581;51.568;6.998;2023-04-10T03:09:32;19.10;;;11.90;;
3141;SDS011;1581;51.568;6.998;2023-04-10T03:12:00;15.60;;;10.60;;
3141;SDS011;1581;51.568;6.998;2023-04-10T03:14:28;17.37;;;10.80;;
3141;SDS011;1581;51.568;6.998;2023-04-10T03:16:55;18.97;;;11.80;;
3141;SDS011;1581;51.568;6.998;2023-04-10T03:19:23;19.47;;;12.33;;
3141;SDS011;1581;51.568;6.998;2023-04-10T03:21:52;16.73;;;9.60;;
3141;SDS011;1581;51.568;6.998;2023-04-10T03:24:19;18.40;;;10.97;;
3141;SDS011;1581;51.568;6.998;2023-04-10T03:26:47;16.40;;;10.77;;
3141;SDS011;1581;51.568;6.998;2023-04-10T03:29:14;13.83;;;9.90;;
3141;SDS011;1581;51.568;6.998;2023-04-10T03:31:43;15.57;;;10.20;;
3141;SDS011;1581;51.568;6.998;2023-04-10T03:34:11;13.90;;;10.27;;
3141;SDS011;1581;51.568;6.998;2023-04-10T03:36:38;15.70;;;10.33;;
3141;SDS011;1581;51.568;6.998;2023-04-10T03:39:07;15.27;;;9.80;;
3141;SDS011;1581;51.568;6.998;2023-04-10T03:41:35;14.80;;;10.10;;
3141;SDS011;1581;51.568;6.998;2023-04-10T03:44:02;14.70;;;8.80;;
3141;SDS011;1581;51.568;6.998;2023-04-10T03:46:30;15.40;;;10.23;;
3141;SDS011;1581;51.568;6.998;2023-04-10T03:48:57;15.10;;;9.93;;
3141;SDS011;1581;51.568;6.998;2023-04-10T03:51:25;16.33;;;9.70;;
3141;SDS011;1581;51.568;6.998;2023-04-10T03:53:53;14.53;;;9.70;;
3141;SDS011;1581;51.568;6.998;2023-04-10T03:56:21;13.20;;;8.93;;
3141;SDS011;1581;51.568;6.998;2023-04-10T03:58:49;16.17;;;10.67;;
3141;SDS011;1581;51.568;6.998;2023-04-10T04:01:16;12.37;;;8.57;;
3141;SDS011;1581;51.568;6.998;2023-04-10T04:03:44;16.43;;;9.67;;
3141;SDS011;1581;51.568;6.998;2023-04-10T04:06:12;17.77;;;9.93;;
3141;SDS011;1581;51.568;6.998;2023-04-10T04:08:39;17.40;;;10.23;;
3141;SDS011;1581;51.568;6.998;2023-04-10T04:11:07;18.80;;;10.43;;
3141;SDS011;1581;51.568;6.998;2023-04-10T04:13:36;23.50;;;9.57;;
3141;SDS011;1581;51.568;6.998;2023-04-10T04:16:04;16.47;;;10.07;;
3141;SDS011;1581;51.568;6.998;2023-04-10T04:18:33;13.93;;;8.97;;
3141;SDS011;1581;51.568;6.998;2023-04-10T04:21:01;17.20;;;9.40;;
3141;SDS011;1581;51.568;6.998;2023-04-10T04:23:28;12.20;;;7.80;;
3141;SDS011;1581;51.568;6.998;2023-04-10T04:25:56;12.80;;;8.60;;
3141;SDS011;1581;51.568;6.998;2023-04-10T04:28:24;16.10;;;9.87;;
3141;SDS011;1581;51.568;6.998;2023-04-10T04:30:52;16.83;;;9.73;;
3141;SDS011;1581;51.568;6.998;2023-04-10T04:33:20;16.17;;;9.23;;
3141;SDS011;1581;51.568;6.998;2023-04-10T04:35:48;14.87;;;9.30;;
3141;SDS011;1581;51.568;6.998;2023-04-10T04:38:15;13.27;;;8.53;;
3141;SDS011;1581;51.568;6.998;2023-04-10T04:40:44;10.47;;;7.77;;
3141;SDS011;1581;51.568;6.998;2023-04-10T04:43:11;14.67;;;8.20;;
3141;SDS011;1581;51.568;6.998;2023-04-10T04:45:39;15.20;;;8.83;;
3141;SDS011;1581;51.568;6.998;2023-04-10T04:48:08;11.57;;;7.83;;
3141;SDS011;1581;51.568;6.998;2023-04-10T04:50:35;14.13;;;9.43;;
3141;SDS011;1581;51.568;6.998;2023-04-10T04:53:05;17.50;;;8.77;;
3141;SDS011;1581;51.568;6.998;2023-04-10T04:55:35;12.57;;;7.97;;
3141;SDS011;1581;51.568;6.998;2023-04-10T04:58:03;18.43;;;9.10;;
3141;SDS011;1581;51.568;6.998;2023-04-10T05:00:30;13.33;;;8.97;;
3141;SDS011;1581;51.568;6.998;2023-04-10T05:02:58;8.83;;;6.53;;
3141;SDS011;1581;51.568;6.998;2023-04-10T05:05:26;13.20;;;8.30;;
3141;SDS011;1581;51.568;6.998;2023-04-10T05:07:54;10.00;;;7.10;;
3141;SDS011;1581;51.568;6.998;2023-04-10T05:10:21;13.90;;;7.93;;
3141;SDS011;1581;51.568;6.998;2023-04-10T05:12:49;12.47;;;7.90;;
3141;SDS011;1581;51.568;6.998;2023-04-10T05:15:17;13.40;;;7.90;;
3141;SDS011;1581;51.568;6.998;2023-04-10T05:17:44;10.43;;;7.40;;
3141;SDS011;1581;51.568;6.998;2023-04-10T05:20:15;11.43;;;7.90;;
3141;SDS011;1581;51.568;6.998;2023-04-10T05:22:44;11.80;;;7.67;;
3141;SDS011;1581;51.568;6.998;2023-04-10T05:25:11;12.03;;;7.53;;
3141;SDS011;1581;51.568;6.998;2023-04-10T05:27:39;12.60;;;7.87;;
3141;SDS011;1581;51.568;6.998;2023-04-10T05:30:07;10.70;;;7.43;;
3141;SDS011;1581;51.568;6.998;2023-04-10T05:32:36;9.40;;;7.30;;
3141;SDS011;1581;51.568;6.998;2023-04-10T05:35:03;13.43;;;7.67;;
3141;SDS011;1581;51.568;6.998;2023-04-10T05:37:32;11.67;;;7.80;;
3141;SDS011;1581;51.568;6.998;2023-04-10T05:40:01;11.10;;;7.30;;
3141;SDS011;1581;51.568;6.998;2023-04-10T05:42:29;13.10;;;8.10;;
3141;SDS011;1581;51.568;6.998;2023-04-10T05:44:57;12.27;;;8.07;;
3141;SDS011;1581;51.568;6.998;2023-04-10T05:47:24;11.80;;;8.23;;
3141;SDS011;1581;51.568;6.998;2023-04-10T05:49:52;11.03;;;7.07;;
3141;SDS011;1581;51.568;6.998;2023-04-10T05:52:20;12.33;;;8.23;;
3141;SDS011;1581;51.568;6.998;2023-04-10T05:54:47;12.30;;;7.00;;
3141;SDS011;1581;51.568;6.998;2023-04-10T05:57:17;11.40;;;7.00;;
3141;SDS011;1581;51.568;6.998;2023-04-10T05:59:45;13.23;;;6.87;;
3141;SDS011;1581;51.568;6.998;2023-04-10T06:02:12;9.93;;;7.07;;
3141;SDS011;1581;51.568;6.998;2023-04-10T06:04:40;9.30;;;6.50;;
3141;SDS011;1581;51.568;6.998;2023-04-10T06:07:08;10.80;;;7.10;;
3141;SDS011;1581;51.568;6.998;2023-04-10T06:09:35;10.13;;;7.10;;
3141;SDS011;1581;51.568;6.998;2023-04-10T06:12:03;9.17;;;6.63;;
3141;SDS011;1581;51.568;6.998;2023-04-10T06:14:32;8.87;;;6.60;;
3141;SDS011;1581;51.568;6.998;2023-04-10T06:17:00;9.90;;;6.97;;
3141;SDS011;1581;51.568;6.998;2023-04-10T06:19:27;9.87;;;7.00;;
3141;SDS011;1581;51.568;6.998;2023-04-10T06:21:55;10.87;;;6.07;;
3141;SDS011;1581;51.568;6.998;2023-04-10T06:24:23;10.97;;;6.80;;
3141;SDS011;1581;51.568;6.998;2023-04-10T06:26:50;10.60;;;5.70;;
3141;SDS011;1581;51.568;6.998;2023-04-10T06:29:18;7.10;;;5.20;;
3141;SDS011;1581;51.568;6.998;2023-04-10T06:31:47;7.50;;;5.73;;
3141;SDS011;1581;51.568;6.998;2023-04-10T06:34:15;9.13;;;5.23;;
3141;SDS011;1581;51.568;6.998;2023-04-10T06:36:42;6.83;;;4.97;;
3141;SDS011;1581;51.568;6.998;2023-04-10T06:39:10;9.43;;;6.13;;
3141;SDS011;1581;51.568;6.998;2023-04-10T06:41:37;8.63;;;5.97;;
3141;SDS011;1581;51.568;6.998;2023-04-10T06:44:05;7.33;;;5.97;;
3141;SDS011;1581;51.568;6.998;2023-04-10T06:46:32;8.97;;;6.00;;
3141;SDS011;1581;51.568;6.998;2023-04-10T06:49:01;18.10;;;6.63;;
3141;SDS011;1581;51.568;6.998;2023-04-10T06:51:29;13.10;;;7.83;;
3141;SDS011;1581;51.568;6.998;2023-04-10T06:53:56;15.00;;;8.67;;
3141;SDS011;1581;51.568;6.998;2023-04-10T06:56:24;14.17;;;7.77;;
3141;SDS011;1581;51.568;6.998;2023-04-10T06:58:51;10.90;;;6.50;;
3141;SDS011;1581;51.568;6.998;2023-04-10T07:01:19;9.50;;;6.70;;
3141;SDS011;1581;51.568;6.998;2023-04-10T07:03:46;10.13;;;6.20;;
3141;SDS011;1581;51.568;6.998;2023-04-10T07:06:15;8.87;;;6.20;;
3141;SDS011;1581;51.568;6.998;2023-04-10T07:08:43;7.57;;;5.17;;
3141;SDS011;1581;51.568;6.998;2023-04-10T07:11:10;8.30;;;4.87;;
3141;SDS011;1581;51.568;6.998;2023-04-10T07:13:37;9.10;;;5.57;;
3141;SDS011;1581;51.568;6.998;2023-04-10T07:16:06;5.80;;;4.73;;
3141;SDS011;1581;51.568;6.998;2023-04-10T07:18:35;6.07;;;4.40;;
3141;SDS011;1581;51.568;6.998;2023-04-10T07:21:09;7.07;;;4.57;;
3141;SDS011;1581;51.568;6.998;2023-04-10T07:23:38;5.53;;;4.67;;
3141;SDS011;1581;51.568;6.998;2023-04-10T07:26:06;5.73;;;4.80;;
3141;SDS011;1581;51.568;6.998;2023-04-10T07:28:33;6.13;;;4.20;;
3141;SDS011;1581;51.568;6.998;2023-04-10T07:31:02;5.77;;;4.37;;
3141;SDS011;1581;51.568;6.998;2023-04-10T07:33:30;4.80;;;3.93;;
3141;SDS011;1581;51.568;6.998;2023-04-10T07:35:58;6.67;;;4.03;;
3141;SDS011;1581;51.568;6.998;2023-04-10T07:38:26;4.00;;;3.60;;
3141;SDS011;1581;51.568;6.998;2023-04-10T07:40:58;5.10;;;4.20;;
3141;SDS011;1581;51.568;6.998;2023-04-10T07:43:26;6.83;;;4.60;;
3141;SDS011;1581;51.568;6.998;2023-04-10T07:45:54;10.17;;;4.30;;
3141;SDS011;1581;51.568;6.998;2023-04-10T07:48:22;5.77;;;4.63;;
3141;SDS011;1581;51.568;6.998;2023-04-10T07:50:49;3.57;;;3.20;;
3141;SDS011;1581;51.568;6.998;2023-04-10T07:53:18;4.17;;;3.77;;
3141;SDS011;1581;51.568;6.998;2023-04-10T07:55:45;6.67;;;4.57;;
3141;SDS011;1581;51.568;6.998;2023-04-10T07:58:16;4.60;;;3.93;;
3141;SDS011;1581;51.568;6.998;2023-04-10T08:00:43;5.47;;;4.63;;
3141;SDS011;1581;51.568;6.998;2023-04-10T08:03:18;6.87;;;4.97;;
3141;SDS011;1581;51.568;6.998;2023-04-10T08:05:46;7.43;;;5.30;;
3141;SDS011;1581;51.568;6.998;2023-04-10T08:08:15;8.70;;;5.07;;
3141;SDS011;1581;51.568;6.998;2023-04-10T08:10:45;4.37;;;3.77;;
3141;SDS011;1581;51.568;6.998;2023-04-10T08:13:12;5.93;;;4.63;;
3141;SDS011;1581;51.568;6.998;2023-04-10T08:15:43;7.40;;;4.70;;
3141;SDS011;1581;51.568;6.998;2023-04-10T08:18:25;4.73;;;4.17;;
3141;SDS011;1581;51.568;6.998;2023-04-10T08:20:55;4.13;;;3.73;;
3141;SDS011;1581;51.568;6.998;2023-04-10T08:23:23;6.00;;;4.23;;
3141;SDS011;1581;51.568;6.998;2023-04-10T08:25:51;3.50;;;3.20;;
3141;SDS011;1581;51.568;6.998;2023-04-10T08:28:21;5.07;;;3.93;;
3141;SDS011;1581;51.568;6.998;2023-04-10T08:30:50;5.00;;;3.80;;
3141;SDS011;1581;51.568;6.998;2023-04-10T08:33:19;7.40;;;4.50;;
3141;SDS011;1581;51.568;6.998;2023-04-10T08:35:46;5.00;;;3.90;;
3141;SDS011;1581;51.568;6.998;2023-04-10T08:38:16;4.63;;;3.97;;
3141;SDS011;1581;51.568;6.998;2023-04-10T08:40:45;3.73;;;3.33;;
3141;SDS011;1581;51.568;6.998;2023-04-10T08:43:13;6.90;;;3.47;;
3141;SDS011;1581;51.568;6.998;2023-04-10T08:45:40;4.33;;;3.37;;
3141;SDS011;1581;51.568;6.998;2023-04-10T08:48:09;3.77;;;3.47;;
3141;SDS011;1581;51.568;6.998;2023-04-10T08:50:40;3.30;;;3.00;;
3141;SDS011;1581;51.568;6.998;2023-04-10T08:53:11;3.60;;;3.30;;
3141;SDS011;1581;51.568;6.998;2023-04-10T08:55:40;4.20;;;3.50;;
3141;SDS011;1581;51.568;6.998;2023-04-10T08:58:09;3.63;;;3.20;;
3141;SDS011;1581;51.568;6.998;2023-04-10T09:00:38;4.03;;;3.63;;
3141;SDS011;1581;51.568;6.998;2023-04-10T09:03:08;3.23;;;2.83;;
3141;SDS011;1581;51.568;6.998;2023-04-10T09:05:38;3.67;;;3.17;;
3141;SDS011;1581;51.568;6.998;2023-04-10T09:08:06;4.17;;;3.10;;
3141;SDS011;1581;51.568;6.998;2023-04-10T09:10:35;3.40;;;3.10;;
3141;SDS011;1581;51.568;6.998;2023-04-10T09:13:03;3.33;;;2.93;;
3141;SDS011;1581;51.568;6.998;2023-04-10T09:15:35;3.90;;;3.13;;
3141;SDS011;1581;51.568;6.998;2023-04-10T09:18:23;3.47;;;2.87;;
3141;SDS011;1581;51.568;6.998;2023-04-10T09:21:11;2.93;;;2.73;;
3141;SDS011;1581;51.568;6.998;2023-04-10T09:23:41;14.83;;;3.43;;
3141;SDS011;1581;51.568;6.998;2023-04-10T09:26:22;2.77;;;2.57;;
3141;SDS011;1581;51.568;6.998;2023-04-10T09:28:56;2.87;;;2.67;;
3141;SDS011;1581;51.568;6.998;2023-04-10T09:31:26;3.17;;;2.93;;
3141;SDS011;1581;51.568;6.998;2023-04-10T09:34:13;3.23;;;2.50;;
3141;SDS011;1581;51.568;6.998;2023-04-10T09:36:43;2.90;;;2.60;;
3141;SDS011;1581;51.568;6.998;2023-04-10T09:39:20;6.93;;;2.87;;
3141;SDS011;1581;51.568;6.998;2023-04-10T09:41:58;2.67;;;2.43;;
3141;SDS011;1581;51.568;6.998;2023-04-10T09:44:30;2.90;;;2.70;;
3141;SDS011;1581;51.568;6.998;2023-04-10T09:47:14;3.37;;;2.60;;
3141;SDS011;1581;51.568;6.998;2023-04-10T09:49:45;3.10;;;2.90;;
3141;SDS011;1581;51.568;6.998;2023-04-10T09:52:16;3.83;;;2.67;;
3141;SDS011;1581;51.568;6.998;2023-04-10T09:54:45;2.93;;;2.67;;
3141;SDS011;1581;51.568;6.998;2023-04-10T09:57:14;2.80;;;2.60;;
3141;SDS011;1581;51.568;6.998;2023-04-10T09:59:45;3.43;;;2.90;;
3141;SDS011;1581;51.568;6.998;2023-04-10T10:02:16;3.05;;;2.85;;
3141;SDS011;1581;51.568;6.998;2023-04-10T10:04:46;3.75;;;2.70;;
3141;SDS011;1581;51.568;6.998;2023-04-10T10:07:15;2.88;;;2.67;;
3141;SDS011;1581;51.568;6.998;2023-04-10T10:09:45;3.38;;;2.33;;
3141;SDS011;1581;51.568;6.998;2023-04-10T10:12:14;2.53;;;2.35;;
3141;SDS011;1581;51.568;6.998;2023-04-10T10:14:50;2.53;;;2.33;;
3141;SDS011;1581;51.568;6.998;2023-04-10T10:17:33;4.05;;;2.70;;
3141;SDS011;1581;51.568;6.998;2023-04-10T10:20:10;3.10;;;2.78;;
3141;SDS011;1581;51.568;6.998;2023-04-10T10:22:43;45.22;;;4.88;;
3141;SDS011;1581;51.568;6.998;2023-04-10T10:25:12;2.80;;;2.50;;
3141;SDS011;1581;51.568;6.998;2023-04-10T10:27:40;3.53;;;2.28;;
3141;SDS011;1581;51.568;6.998;2023-04-10T10:30:08;2.13;;;1.92;;
3141;SDS011;1581;51.568;6.998;2023-04-10T10:32:38;3.50;;;3.20;;
3141;SDS011;1581;51.568;6.998;2023-04-10T10:35:07;5.43;;;2.80;;
3141;SDS011;1581;51.568;6.998;2023-04-10T10:37:36;3.28;;;2.88;;
3141;SDS011;1581;51.568;6.998;2023-04-10T10:40:09;2.42;;;2.22;;
3141;SDS011;1581;51.568;6.998;2023-04-10T10:42:44;2.50;;;2.30;;
3141;SDS011;1581;51.568;6.998;2023-04-10T10:45:20;3.10;;;2.90;;
3141;SDS011;1581;51.568;6.998;2023-04-10T10:47:56;2.05;;;1.95;;
3141;SDS011;1581;51.568;6.998;2023-04-10T10:50:25;2.60;;;2.40;;
3141;SDS011;1581;51.568;6.998;2023-04-10T10:53:31;4.03;;;2.70;;
3141;SDS011;1581;51.568;6.998;2023-04-10T10:59:01;3.25;;;2.28;;
3141;SDS011;1581;51.568;6.998;2023-04-10T11:01:29;3.33;;;2.63;;
3141;SDS011;1581;51.568;6.998;2023-04-10T11:03:56;2.63;;;2.47;;
3141;SDS011;1581;51.568;6.998;2023-04-10T11:12:15;2.47;;;2.28;;
3141;SDS011;1581;51.568;6.998;2023-04-10T11:14:55;2.60;;;2.40;;
3141;SDS011;1581;51.568;6.998;2023-04-10T11:20:18;2.30;;;2.20;;
3141;SDS011;1581;51.568;6.998;2023-04-10T11:25:45;2.30;;;2.10;;
3141;SDS011;1581;51.568;6.998;2023-04-10T11:28:34;2.30;;;2.17;;
3141;SDS011;1581;51.568;6.998;2023-04-10T11:31:17;2.28;;;2.08;;
3141;SDS011;1581;51.568;6.998;2023-04-10T11:33:47;2.70;;;2.50;;
3141;SDS011;1581;51.568;6.998;2023-04-10T11:36:16;2.40;;;2.20;;
3141;SDS011;1581;51.568;6.998;2023-04-10T11:41:46;2.58;;;2.13;;
3141;SDS011;1581;51.568;6.998;2023-04-10T11:44:16;2.25;;;2.15;;
3141;SDS011;1581;51.568;6.998;2023-04-10T11:46:51;2.72;;;2.53;;
3141;SDS011;1581;51.568;6.998;2023-04-10T11:49:20;2.72;;;2.53;;
3141;SDS011;1581;51.568;6.998;2023-04-10T11:51:50;2.58;;;2.40;;
3141;SDS011;1581;51.568;6.998;2023-04-10T11:54:18;2.35;;;2.25;;
3141;SDS011;1581;51.568;6.998;2023-04-10T11:56:56;2.97;;;2.78;;
3141;SDS011;1581;51.568;6.998;2023-04-10T11:59:25;2.78;;;2.58;;
3141;SDS011;1581;51.568;6.998;2023-04-10T12:02:03;3.22;;;2.70;;
3141;SDS011;1581;51.568;6.998;2023-04-10T12:04:33;2.50;;;2.30;;
3141;SDS011;1581;51.568;6.998;2023-04-10T12:07:01;3.40;;;2.28;;
3141;SDS011;1581;51.568;6.998;2023-04-10T12:09:28;2.30;;;2.10;;
3141;SDS011;1581;51.568;6.998;2023-04-10T12:11:58;2.28;;;2.08;;
3141;SDS011;1581;51.568;6.998;2023-04-10T12:14:28;7.15;;;2.60;;
3141;SDS011;1581;51.568;6.998;2023-04-10T12:16:57;2.53;;;2.42;;
3141;SDS011;1581;51.568;6.998;2023-04-10T12:19:26;2.47;;;2.30;;
3141;SDS011;1581;51.568;6.998;2023-04-10T12:21:54;2.08;;;1.98;;
3141;SDS011;1581;51.568;6.998;2023-04-10T12:24:39;2.00;;;1.90;;
3141;SDS011;1581;51.568;6.998;2023-04-10T12:27:13;1.90;;;1.80;;
3141;SDS011;1581;51.568;6.998;2023-04-10T12:29:42;2.45;;;2.25;;
3141;SDS011;1581;51.568;6.998;2023-04-10T12:32:10;2.35;;;2.08;;
3141;SDS011;1581;51.568;6.998;2023-04-10T12:34:38;3.75;;;2.20;;
3141;SDS011;1581;51.568;6.998;2023-04-10T12:37:06;1.95;;;1.85;;
3141;SDS011;1581;51.568;6.998;2023-04-10T12:39:34;2.00;;;1.90;;
3141;SDS011;1581;51.568;6.998;2023-04-10T12:42:13;3.53;;;2.00;;
3141;SDS011;1581;51.568;6.998;2023-04-10T12:44:51;2.58;;;2.38;;
3141;SDS011;1581;51.568;6.998;2023-04-10T12:47:19;7.80;;;2.28;;
3141;SDS011;1581;51.568;6.998;2023-04-10T12:50:04;2.70;;;2.50;;
3141;SDS011;1581;51.568;6.998;2023-04-10T12:52:33;2.38;;;2.17;;
3141;SDS011;1581;51.568;6.998;2023-04-10T12:55:08;2.58;;;2.47;;
3141;SDS011;1581;51.568;6.998;2023-04-10T12:57:41;2.38;;;1.90;;
3141;SDS011;1581;51.568;6.998;2023-04-10T13:00:11;3.42;;;2.67;;
3141;SDS011;1581;51.568;6.998;2023-04-10T13:02:44;1.70;;;1.60;;
3141;SDS011;1581;51.568;6.998;2023-04-10T13:05:13;2.25;;;2.15;;
3141;SDS011;1581;51.568;6.998;2023-04-10T13:07:41;4.63;;;2.92;;
3141;SDS011;1581;51.568;6.998;2023-04-10T13:10:09;3.45;;;2.20;;
3141;SDS011;1581;51.568;6.998;2023-04-10T13:12:37;2.72;;;2.35;;
3141;SDS011;1581;51.568;6.998;2023-04-10T13:15:07;2.58;;;2.47;;
3141;SDS011;1581;51.568;6.998;2023-04-10T13:17:36;2.20;;;2.08;;
3141;SDS011;1581;51.568;6.998;2023-04-10T13:20:05;1.98;;;1.88;;
3141;SDS011;1581;51.568;6.998;2023-04-10T13:22:34;2.63;;;2.42;;
3141;SDS011;1581;51.568;6.998;2023-04-10T13:25:02;2.80;;;2.58;;
3141;SDS011;1581;51.568;6.998;2023-04-10T13:27:31;2.13;;;2.03;;
3141;SDS011;1581;51.568;6.998;2023-04-10T13:29:58;2.40;;;2.20;;
3141;SDS011;1581;51.568;6.998;2023-04-10T13:32:27;2.47;;;2.28;;
3141;SDS011;1581;51.568;6.998;2023-04-10T13:34:55;2.10;;;2.00;;
3141;SDS011;1581;51.568;6.998;2023-04-10T13:37:33;3.33;;;2.30;;
3141;SDS011;1581;51.568;6.998;2023-04-10T13:40:19;2.13;;;2.03;;
3141;SDS011;1581;51.568;6.998;2023-04-10T13:42:47;2.63;;;2.42;;
3141;SDS011;1581;51.568;6.998;2023-04-10T13:45:14;2.97;;;2.28;;
3141;SDS011;1581;51.568;6.998;2023-04-10T13:47:43;2.30;;;2.10;;
3141;SDS011;1581;51.568;6.998;2023-04-10T13:50:11;2.03;;;1.92;;
3141;SDS011;1581;51.568;6.998;2023-04-10T13:52:39;3.05;;;2.25;;
3141;SDS011;1581;51.568;6.998;2023-04-10T13:55:07;1.65;;;1.55;;
3141;SDS011;1581;51.568;6.998;2023-04-10T13:57:35;2.22;;;2.13;;
3141;SDS011;1581;51.568;6.998;2023-04-10T14:00:05;2.65;;;2.45;;
3141;SDS011;1581;51.568;6.998;2023-04-10T14:02:36;2.30;;;2.20;;
3141;SDS011;1581;51.568;6.998;2023-04-10T14:05:05;2.28;;;2.08;;
3141;SDS011;1581;51.568;6.998;2023-04-10T14:07:34;2.55;;;2.42;;
3141;SDS011;1581;51.568;6.998;2023-04-10T14:10:02;2.50;;;2.30;;
3141;SDS011;1581;51.568;6.998;2023-04-10T14:12:31;1.75;;;1.65;;
3141;SDS011;1581;51.568;6.998;2023-04-10T14:14:58;2.10;;;1.98;;
3141;SDS011;1581;51.568;6.998;2023-04-10T14:17:26;2.22;;;1.98;;
3141;SDS011;1581;51.568;6.998;2023-04-10T14:19:54;2.75;;;2.33;;
3141;SDS011;1581;51.568;6.998;2023-04-10T14:22:22;2.22;;;2.10;;
3141;SDS011;1581;51.568;6.998;2023-04-10T14:24:50;2.10;;;2.00;;
3141;SDS011;1581;51.568;6.998;2023-04-10T14:27:17;2.10;;;2.00;;
3141;SDS011;1581;51.568;6.998;2023-04-10T14:29:45;2.22;;;2.03;;
3141;SDS011;1581;51.568;6.998;2023-04-10T14:32:13;2.50;;;2.30;;
3141;SDS011;1581;51.568;6.998;2023-04-10T14:34:40;2.40;;;1.88;;
3141;SDS011;1581;51.568;6.998;2023-04-10T14:37:08;2.40;;;1.95;;
3141;SDS011;1581;51.568;6.998;2023-04-10T14:39:36;2.13;;;1.90;;
3141;SDS011;1581;51.568;6.998;2023-04-10T14:42:04;4.55;;;2.55;;
3141;SDS011;1581;51.568;6.998;2023-04-10T14:44:31;2.47;;;2.05;;
3141;SDS011;1581;51.568;6.998;2023-04-10T14:46:59;2.03;;;1.92;;
3141;SDS011;1581;51.568;6.998;2023-04-10T14:49:30;2.30;;;2.10;;
3141;SDS011;1581;51.568;6.998;2023-04-10T14:51:57;2.00;;;1.83;;
3141;SDS011;1581;51.568;6.998;2023-04-10T14:54:25;2.58;;;2.42;;
3141;SDS011;1581;51.568;6.998;2023-04-10T14:56:54;2.50;;;2.25;;
3141;SDS011;1581;51.568;6.998;2023-04-10T14:59:22;2.03;;;1.77;;
3141;SDS011;1581;51.568;6.998;2023-04-10T15:01:50;4.87;;;2.10;;
3141;SDS011;1581;51.568;6.998;2023-04-10T15:04:21;2.92;;;2.50;;
3141;SDS011;1581;51.568;6.998;2023-04-10T15:06:55;2.53;;;2.22;;
3141;SDS011;1581;51.568;6.998;2023-04-10T15:09:23;2.30;;;2.05;;
3141;SDS011;1581;51.568;6.998;2023-04-10T15:11:51;2.00;;;1.90;;
3141;SDS011;1581;51.568;6.998;2023-04-10T15:14:20;2.43;;;2.23;;
3141;SDS011;1581;51.568;6.998;2023-04-10T15:16:48;3.15;;;2.10;;
3141;SDS011;1581;51.568;6.998;2023-04-10T15:19:15;2.25;;;2.13;;
3141;SDS011;1581;51.568;6.998;2023-04-10T15:21:43;2.97;;;2.35;;
3141;SDS011;1581;51.568;6.998;2023-04-10T15:24:10;2.20;;;2.10;;
3141;SDS011;1581;51.568;6.998;2023-04-10T15:26:41;2.45;;;2.17;;
3141;SDS011;1581;51.568;6.998;2023-04-10T15:29:12;2.55;;;1.98;;
3141;SDS011;1581;51.568;6.998;2023-04-10T15:31:39;2.13;;;2.03;;
3141;SDS011;1581;51.568;6.998;2023-04-10T15:34:07;2.65;;;2.08;;
3141;SDS011;1581;51.568;6.998;2023-04-10T15:36:34;2.10;;;2.00;;
3141;SDS011;1581;51.568;6.998;2023-04-10T15:39:02;2.17;;;1.98;;
3141;SDS011;1581;51.568;6.998;2023-04-10T15:41:30;3.15;;;2.20;;